Huvudsida
METAR-TAF:

METAR-TAF

Flygplatser :

Honiara International Airport

Honiara, Guadalcanal, Salomonöarna

latitud: 09-25S, longitud: 160-03E, höjd: 8 m

Aktuellt väderrapport

Denna rapport gjordes för 31 minuter sedan, klockan 13:00 UTC
Vind 2 kt från syd/sydväst
Temperatur 24°C
Fuktighet 94%
Tryck 1010 hPa
Sikt 10 km eller mer
Få moln på en höjd av 1500 ft
torrdis

METAR: AGGH 151300Z 20002KT 9999 HZ FEW015 24/23 Q1010

Tid: 00:31 (13:31 UTC)

Väderprognos

Denna rapport gjordes för 2 timmar och 16 minuter sedan, klockan 11:15 UTC
Prognos gäller från 15 kl. 12 UTC till 16 kl. 12 UTC
Vind 5 kt från syd
Sikt 10 km eller mer
Få moln på en höjd av 1600 ft
Från 15 kl. 2300 UTC
Vind 12 kt från ost
Sikt: 1010 m
Spridda moln på en höjd av 1900 ft

TAF: AGGH 151115Z 1512/1612 18005KT 9999 FEW016 FM152300 09012KT 9999 SCT019 T 24 23 23 26 Q 1011 1009 1008 1010

Aktuella väderrapporter och prognoser från 4000 flygplatser (METAR- och TAF-rapporter).

De tillgängliga stationerna syns som gula och röda prickar på kartan.

För musen över prickarna för att se namnen på stationerna.

Klicka sedan för att få väderrapporter och prognoser.

För att ändra kartan: Klicka på de gröna knapparna med ett svart kors på för att zooma in; den gröna knappen med ett streck på för att zooma ut; eller på de gröna pilarna för angränsande kartor.


METAR-TAF: